createdAt,value
2019-02-27T00:00:13.771Z,98.96
2019-02-27T00:02:42.082Z,99.45
2019-02-27T00:05:10.377Z,99.64
2019-02-27T00:07:38.657Z,100.00
2019-02-27T00:10:07.680Z,100.00
2019-02-27T00:12:35.972Z,100.00
2019-02-27T00:15:05.953Z,100.00
2019-02-27T00:17:34.300Z,99.95
2019-02-27T00:20:05.005Z,99.98
2019-02-27T00:22:32.621Z,100.00
2019-02-27T00:25:03.552Z,100.00
2019-02-27T00:27:30.937Z,100.00
2019-02-27T00:29:59.500Z,99.99
2019-02-27T00:32:29.211Z,99.66
2019-02-27T00:34:57.493Z,99.59
2019-02-27T00:37:25.778Z,99.61
2019-02-27T00:39:54.094Z,99.91
2019-02-27T00:42:23.068Z,99.95
2019-02-27T00:44:51.364Z,100.00
2019-02-27T00:47:20.195Z,100.00
2019-02-27T00:49:49.010Z,100.00
2019-02-27T00:52:18.235Z,100.00
2019-02-27T00:54:47.066Z,100.00
2019-02-27T00:57:19.983Z,100.00
2019-02-27T00:59:45.355Z,100.00
2019-02-27T01:02:13.632Z,100.00
2019-02-27T01:04:41.933Z,100.00
2019-02-27T01:07:10.214Z,100.00
2019-02-27T01:09:39.558Z,100.00
2019-02-27T01:12:08.267Z,100.00
2019-02-27T01:14:37.086Z,100.00
2019-02-27T01:17:05.959Z,100.00
2019-02-27T01:19:38.466Z,100.00
2019-02-27T01:22:04.276Z,100.00
2019-02-27T01:24:32.576Z,100.00
2019-02-27T01:27:04.315Z,100.00
2019-02-27T01:29:30.892Z,100.00
2019-02-27T01:31:59.183Z,100.00
2019-02-27T01:34:27.490Z,100.00
2019-02-27T01:36:57.903Z,100.00
2019-02-27T01:39:25.787Z,100.00
2019-02-27T01:41:55.321Z,100.00
2019-02-27T01:44:24.096Z,100.00
2019-02-27T01:46:54.530Z,99.99
2019-02-27T01:49:22.408Z,99.90
2019-02-27T01:51:50.690Z,99.86
2019-02-27T01:54:18.960Z,99.80
2019-02-27T01:56:47.258Z,99.74
2019-02-27T01:59:16.785Z,99.57
2019-02-27T02:01:45.536Z,99.33
2019-02-27T02:04:13.840Z,99.27
2019-02-27T02:06:42.109Z,99.18
2019-02-27T02:09:30.370Z,99.00
2019-02-27T02:11:59.212Z,99.20
2019-02-27T02:14:54.084Z,99.30
2019-02-27T02:17:56.356Z,99.56
2019-02-27T02:20:36.597Z,99.40
2019-02-27T02:23:19.712Z,98.98
2019-02-27T02:25:51.185Z,98.92
2019-02-27T02:28:56.708Z,98.61
2019-02-27T02:31:30.821Z,98.24
2019-02-27T02:34:39.883Z,98.14
2019-02-27T02:37:24.565Z,98.06
2019-02-27T02:40:07.483Z,98.15
2019-02-27T02:42:45.023Z,98.06
2019-02-27T02:45:25.402Z,98.12
2019-02-27T02:48:14.700Z,98.19
2019-02-27T02:51:19.143Z,98.58
2019-02-27T02:54:20.652Z,98.92
2019-02-27T02:57:23.190Z,99.07
2019-02-27T03:00:01.177Z,98.99
2019-02-27T03:02:52.428Z,98.81
2019-02-27T03:05:44.497Z,98.84
2019-02-27T03:08:20.267Z,98.96
2019-02-27T03:11:05.817Z,98.96
2019-02-27T03:13:42.033Z,98.77
2019-02-27T03:16:13.463Z,98.72
2019-02-27T03:18:56.826Z,98.81
2019-02-27T03:21:46.181Z,98.53
2019-02-27T03:24:32.488Z,98.73
2019-02-27T03:27:15.643Z,99.26
2019-02-27T03:29:59.100Z,98.90
2019-02-27T03:32:48.553Z,98.20
2019-02-27T03:35:39.468Z,98.03
2019-02-27T03:38:34.351Z,98.63
2019-02-27T03:41:08.709Z,99.16
2019-02-27T03:43:48.829Z,99.17
2019-02-27T03:46:31.420Z,99.45
2019-02-27T03:49:14.418Z,99.28
2019-02-27T03:51:59.703Z,99.51
2019-02-27T03:54:42.251Z,99.39
2019-02-27T03:57:34.574Z,99.51
2019-02-27T04:00:18.160Z,99.67
2019-02-27T04:02:44.838Z,99.40
2019-02-27T04:05:32.719Z,99.08
2019-02-27T04:08:09.932Z,99.05
2019-02-27T04:10:38.209Z,98.81
2019-02-27T04:13:06.485Z,98.00
2019-02-27T04:15:34.834Z,97.27
2019-02-27T04:18:02.175Z,96.79
2019-02-27T04:20:30.473Z,96.50
2019-02-27T04:22:58.762Z,96.95
2019-02-27T04:25:31.129Z,96.99
2019-02-27T04:27:57.057Z,97.19
2019-02-27T04:30:25.341Z,97.41
2019-02-27T04:32:53.625Z,97.71
2019-02-27T04:35:21.902Z,98.03
2019-02-27T04:37:53.933Z,98.07
2019-02-27T04:40:20.197Z,98.16
2019-02-27T04:42:48.486Z,98.29
2019-02-27T04:45:16.765Z,98.47
2019-02-27T04:47:45.045Z,98.59
2019-02-27T04:50:13.337Z,98.55
2019-02-27T04:52:41.629Z,98.58
2019-02-27T04:55:09.918Z,98.58
2019-02-27T04:57:38.194Z,98.48
2019-02-27T05:00:09.597Z,98.50
2019-02-27T05:02:37.879Z,98.82
2019-02-27T05:05:08.566Z,99.24
2019-02-27T05:07:37.456Z,99.34
2019-02-27T05:10:08.193Z,99.31
2019-02-27T05:12:36.465Z,99.10
2019-02-27T05:15:06.103Z,98.89
2019-02-27T05:17:34.378Z,99.12
2019-02-27T05:20:02.687Z,99.66
2019-02-27T05:22:30.962Z,100.00
2019-02-27T05:24:59.223Z,100.00
2019-02-27T05:27:27.517Z,100.00
2019-02-27T05:29:55.813Z,100.00
2019-02-27T05:32:25.310Z,100.00
2019-02-27T05:34:54.132Z,100.00
2019-02-27T05:37:22.423Z,100.00
2019-02-27T05:39:51.721Z,100.00
2019-02-27T05:42:20.082Z,100.00
2019-02-27T05:44:48.361Z,100.00
2019-02-27T05:47:16.642Z,100.00
2019-02-27T05:49:44.944Z,100.00
2019-02-27T05:52:14.359Z,100.00
2019-02-27T05:54:43.318Z,100.00
2019-02-27T05:57:11.652Z,100.00
2019-02-27T05:59:39.885Z,100.00
2019-02-27T06:02:10.569Z,100.00
2019-02-27T06:04:38.190Z,100.00
2019-02-27T06:07:06.470Z,100.00
2019-02-27T06:09:34.768Z,100.00
2019-02-27T06:12:06.560Z,100.00
2019-02-27T06:14:33.071Z,100.00
2019-02-27T06:17:01.343Z,100.00
2019-02-27T06:19:30.571Z,100.00
2019-02-27T06:21:59.646Z,100.00
2019-02-27T06:24:27.948Z,100.00
2019-02-27T06:26:56.232Z,100.00
2019-02-27T06:29:24.519Z,100.00
2019-02-27T06:31:52.806Z,100.00
2019-02-27T06:34:22.372Z,100.00
2019-02-27T06:36:51.098Z,100.00
2019-02-27T06:39:19.374Z,100.00
2019-02-27T06:41:49.748Z,100.00
2019-02-27T06:44:19.081Z,100.00
2019-02-27T06:46:47.448Z,100.00
2019-02-27T06:49:18.216Z,100.00
2019-02-27T06:51:45.765Z,100.00
2019-02-27T06:54:18.113Z,100.00
2019-02-27T06:56:44.069Z,100.00
2019-02-27T06:59:12.349Z,100.00
2019-02-27T07:01:40.626Z,100.00
2019-02-27T07:04:08.935Z,100.00
2019-02-27T07:06:37.260Z,100.00
2019-02-27T07:09:06.377Z,100.00
2019-02-27T07:11:34.658Z,100.00
2019-02-27T07:14:02.948Z,100.00
2019-02-27T07:16:31.236Z,100.00
2019-02-27T07:18:59.506Z,100.00
2019-02-27T07:21:32.403Z,100.00
2019-02-27T07:23:58.664Z,100.00
2019-02-27T07:26:26.948Z,100.00
2019-02-27T07:28:56.079Z,99.70
2019-02-27T07:31:24.356Z,99.26
2019-02-27T07:33:52.623Z,98.44
2019-02-27T07:36:20.899Z,97.05
2019-02-27T07:38:49.163Z,97.05
2019-02-27T07:41:20.146Z,96.48
2019-02-27T07:43:47.509Z,95.73
2019-02-27T07:46:15.784Z,94.54
2019-02-27T07:48:44.060Z,93.64
2019-02-27T07:51:12.357Z,92.37
2019-02-27T07:53:40.637Z,91.10
2019-02-27T07:56:08.916Z,88.42
2019-02-27T07:58:37.218Z,88.42
2019-02-27T08:01:05.510Z,87.03
2019-02-27T08:03:33.790Z,85.13
2019-02-27T08:06:03.022Z,83.57
2019-02-27T08:08:31.263Z,82.63
2019-02-27T08:10:59.544Z,81.68
2019-02-27T08:13:29.720Z,80.26
2019-02-27T08:15:58.101Z,79.20
2019-02-27T08:18:30.011Z,78.26
2019-02-27T08:20:56.392Z,77.78
2019-02-27T08:23:24.675Z,77.31
2019-02-27T08:25:52.972Z,76.87
2019-02-27T08:28:21.243Z,76.32
2019-02-27T08:30:49.531Z,76.22
2019-02-27T08:33:17.813Z,75.91
2019-02-27T08:35:46.094Z,75.36
2019-02-27T08:38:14.424Z,75.22
2019-02-27T08:40:42.693Z,74.45
2019-02-27T08:43:11.026Z,73.42
2019-02-27T08:45:39.455Z,72.04
2019-02-27T08:48:07.740Z,71.15
2019-02-27T08:50:36.022Z,70.25
2019-02-27T08:53:04.647Z,69.11
2019-02-27T08:55:32.945Z,69.07
2019-02-27T08:58:01.224Z,68.43
2019-02-27T09:00:33.393Z,67.61
2019-02-27T09:03:02.824Z,67.12
2019-02-27T09:05:31.941Z,66.91
2019-02-27T09:08:00.226Z,66.37
2019-02-27T09:10:30.728Z,65.91
2019-02-27T09:13:05.410Z,65.76
2019-02-27T09:15:28.482Z,64.72
2019-02-27T09:17:59.136Z,64.07
2019-02-27T09:20:26.776Z,63.25
2019-02-27T09:22:55.865Z,62.14
2019-02-27T09:25:24.949Z,61.16
2019-02-27T09:27:53.285Z,60.18
2019-02-27T09:30:28.760Z,57.80
2019-02-27T09:32:55.628Z,56.54
2019-02-27T09:35:23.917Z,56.75
2019-02-27T09:37:52.209Z,56.23
2019-02-27T09:40:29.668Z,56.28
2019-02-27T09:42:58.200Z,56.73
2019-02-27T09:45:31.428Z,55.66
2019-02-27T09:48:00.669Z,54.28
2019-02-27T09:50:36.970Z,54.47
2019-02-27T09:53:05.308Z,53.74
2019-02-27T09:55:33.591Z,52.92
2019-02-27T09:58:01.945Z,52.12
2019-02-27T10:00:33.385Z,51.74
2019-02-27T10:03:01.961Z,51.77
2019-02-27T10:05:30.308Z,51.36
2019-02-27T10:07:58.646Z,50.56
2019-02-27T10:10:26.921Z,50.33
2019-02-27T10:12:55.188Z,51.86
2019-02-27T10:15:25.289Z,51.85
2019-02-27T10:17:53.575Z,50.35
2019-02-27T10:20:21.863Z,50.99
2019-02-27T10:22:53.385Z,50.61
2019-02-27T10:25:20.161Z,50.10
2019-02-27T10:27:48.515Z,49.04
2019-02-27T10:30:17.361Z,49.36
2019-02-27T10:32:45.647Z,48.58
2019-02-27T10:35:15.823Z,48.25
2019-02-27T10:37:44.305Z,46.74
2019-02-27T10:40:18.686Z,45.92
2019-02-27T10:42:46.956Z,46.93
2019-02-27T10:45:15.571Z,47.57
2019-02-27T10:47:43.871Z,47.04
2019-02-27T10:50:13.109Z,45.39
2019-02-27T10:52:41.397Z,45.39
2019-02-27T10:55:14.182Z,44.42
2019-02-27T10:57:42.329Z,44.17
2019-02-27T11:00:18.917Z,44.57
2019-02-27T11:02:47.882Z,44.21
2019-02-27T11:05:17.860Z,41.24
2019-02-27T11:07:46.742Z,41.72
2019-02-27T11:10:15.080Z,41.26
2019-02-27T11:12:43.473Z,40.49
2019-02-27T11:15:13.920Z,39.24
2019-02-27T11:17:42.233Z,37.24
2019-02-27T11:20:11.621Z,36.44
2019-02-27T11:22:39.919Z,35.13
2019-02-27T11:25:16.828Z,35.55
2019-02-27T11:27:45.138Z,35.26
2019-02-27T11:30:18.344Z,35.56
2019-02-27T11:32:46.627Z,34.96
2019-02-27T11:35:14.984Z,35.61
2019-02-27T11:37:46.626Z,34.65
2019-02-27T11:40:15.815Z,33.93
2019-02-27T11:42:44.110Z,33.32
2019-02-27T11:45:14.626Z,33.21
2019-02-27T11:47:47.883Z,33.95
2019-02-27T11:50:19.436Z,33.07
2019-02-27T11:52:49.138Z,32.44
2019-02-27T11:55:19.733Z,31.81
2019-02-27T11:57:48.005Z,32.00
2019-02-27T12:00:28.708Z,31.92
2019-02-27T12:02:57.625Z,33.38
2019-02-27T12:05:30.612Z,32.94
2019-02-27T12:07:57.130Z,31.62
2019-02-27T12:10:30.654Z,32.91
2019-02-27T12:13:00.739Z,32.22
2019-02-27T12:15:28.948Z,31.80
2019-02-27T12:18:00.494Z,31.70
2019-02-27T12:20:27.278Z,31.70
2019-02-27T12:22:55.609Z,32.58
2019-02-27T12:25:26.925Z,31.55
2019-02-27T12:27:55.555Z,31.84
2019-02-27T12:30:28.353Z,32.26
2019-02-27T12:32:57.054Z,32.20
2019-02-27T12:35:32.684Z,31.81
2019-02-27T12:38:00.987Z,32.46
2019-02-27T12:40:29.262Z,32.63
2019-02-27T12:42:57.553Z,31.49
2019-02-27T12:45:29.742Z,32.78
2019-02-27T12:47:57.872Z,31.24
2019-02-27T12:50:31.020Z,31.09
2019-02-27T12:52:58.251Z,31.09
2019-02-27T12:55:26.814Z,30.85
2019-02-27T12:57:55.104Z,31.41
2019-02-27T13:00:31.838Z,31.41
2019-02-27T13:03:00.105Z,30.70
2019-02-27T13:05:28.741Z,30.39
2019-02-27T13:07:57.092Z,30.79
2019-02-27T13:10:33.012Z,30.04
2019-02-27T13:12:58.453Z,29.44
2019-02-27T13:15:28.709Z,29.44
2019-02-27T13:17:57.993Z,30.10
2019-02-27T13:20:30.161Z,29.74
2019-02-27T13:23:03.829Z,30.81
2019-02-27T13:25:30.276Z,31.43
2019-02-27T13:27:58.453Z,30.47
2019-02-27T13:30:27.879Z,30.45
2019-02-27T13:33:00.636Z,30.05
2019-02-27T13:35:28.281Z,30.45
2019-02-27T13:37:56.231Z,31.10
2019-02-27T13:40:29.412Z,30.87
2019-02-27T13:42:57.692Z,31.02
2019-02-27T13:45:27.209Z,30.77
2019-02-27T13:47:55.576Z,30.94
2019-02-27T13:50:26.731Z,28.67
2019-02-27T13:52:53.933Z,28.63
2019-02-27T13:55:23.158Z,28.84
2019-02-27T13:57:51.464Z,28.39
2019-02-27T14:00:30.000Z,28.42
2019-02-27T14:02:58.367Z,29.43
2019-02-27T14:05:26.651Z,30.57
2019-02-27T14:07:58.522Z,31.04
2019-02-27T14:10:28.181Z,31.18
2019-02-27T14:12:56.569Z,31.08
2019-02-27T14:15:27.389Z,31.81
2019-02-27T14:17:54.839Z,30.65
2019-02-27T14:20:26.984Z,30.25
2019-02-27T14:22:54.080Z,30.60
2019-02-27T14:25:32.947Z,30.42
2019-02-27T14:27:59.944Z,31.22
2019-02-27T14:30:37.286Z,31.37
2019-02-27T14:33:05.576Z,31.58
2019-02-27T14:35:36.188Z,30.96
2019-02-27T14:38:03.865Z,31.31
2019-02-27T14:40:32.159Z,30.87
2019-02-27T14:43:00.464Z,31.42
2019-02-27T14:45:28.765Z,31.52
2019-02-27T14:47:57.046Z,30.37
2019-02-27T14:50:25.597Z,30.12
2019-02-27T14:52:53.878Z,31.35
2019-02-27T14:55:22.704Z,29.93
2019-02-27T14:57:51.505Z,29.58
2019-02-27T15:00:33.645Z,29.42
2019-02-27T15:03:01.928Z,29.45
2019-02-27T15:05:30.205Z,30.20
2019-02-27T15:07:58.528Z,30.25
2019-02-27T15:10:26.877Z,31.38
2019-02-27T15:12:55.610Z,31.26
2019-02-27T15:15:31.146Z,31.27
2019-02-27T15:18:00.183Z,32.13
2019-02-27T15:20:31.185Z,31.83
2019-02-27T15:22:59.461Z,31.98
2019-02-27T15:25:28.037Z,32.70
2019-02-27T15:27:58.826Z,33.18
2019-02-27T15:30:30.342Z,34.56
2019-02-27T15:33:03.982Z,33.25
2019-02-27T15:35:28.657Z,33.77
2019-02-27T15:37:57.115Z,34.19
2019-02-27T15:40:30.094Z,34.60
2019-02-27T15:42:58.526Z,34.67
2019-02-27T15:45:27.946Z,35.49
2019-02-27T15:47:56.242Z,35.48
2019-02-27T15:50:30.455Z,36.28
2019-02-27T15:52:58.748Z,37.01
2019-02-27T15:55:27.053Z,36.72
2019-02-27T15:57:55.332Z,36.30
2019-02-27T16:00:24.754Z,36.14
2019-02-27T16:02:53.049Z,36.36
2019-02-27T16:05:21.419Z,37.20
2019-02-27T16:07:49.941Z,37.48
2019-02-27T16:10:21.322Z,38.01
2019-02-27T16:12:49.600Z,37.68
2019-02-27T16:15:19.349Z,38.02
2019-02-27T16:17:47.631Z,37.68
2019-02-27T16:20:18.425Z,37.70
2019-02-27T16:22:46.718Z,39.15
2019-02-27T16:25:23.821Z,40.99
2019-02-27T16:27:52.133Z,38.92
2019-02-27T16:30:25.073Z,39.61
2019-02-27T16:32:53.374Z,40.43
2019-02-27T16:35:21.669Z,39.34
2019-02-27T16:37:49.976Z,40.18
2019-02-27T16:40:19.894Z,41.20
2019-02-27T16:42:48.521Z,40.06
2019-02-27T16:45:19.525Z,41.72
2019-02-27T16:47:47.799Z,42.44
2019-02-27T16:50:24.598Z,41.06
2019-02-27T16:52:51.528Z,41.12
2019-02-27T16:55:21.661Z,41.31
2019-02-27T16:57:49.935Z,41.47
2019-02-27T17:00:21.422Z,42.34
2019-02-27T17:02:49.809Z,41.91
2019-02-27T17:05:18.112Z,41.24
2019-02-27T17:07:46.394Z,42.88
2019-02-27T17:10:23.500Z,43.67
2019-02-27T17:12:51.785Z,43.13
2019-02-27T17:15:20.092Z,44.23
2019-02-27T17:17:50.586Z,43.33
2019-02-27T17:20:20.271Z,43.86
2019-02-27T17:22:48.559Z,44.08
2019-02-27T17:25:16.840Z,44.79
2019-02-27T17:27:49.837Z,44.33
2019-02-27T17:30:30.058Z,47.25
2019-02-27T17:32:58.352Z,47.73
2019-02-27T17:35:26.635Z,46.02
2019-02-27T17:37:54.949Z,48.47
2019-02-27T17:40:23.230Z,45.67
2019-02-27T17:42:53.590Z,48.37
2019-02-27T17:45:25.436Z,49.71
2019-02-27T17:47:53.732Z,49.38
2019-02-27T17:50:22.022Z,47.92
2019-02-27T17:52:50.319Z,48.63
2019-02-27T17:55:19.248Z,49.53
2019-02-27T17:57:47.554Z,48.02
2019-02-27T18:00:31.170Z,49.78
2019-02-27T18:02:59.464Z,50.38
2019-02-27T18:05:27.755Z,47.85
2019-02-27T18:07:56.057Z,49.30
2019-02-27T18:10:24.374Z,48.67
2019-02-27T18:12:52.668Z,49.00
2019-02-27T18:15:21.997Z,49.43
2019-02-27T18:17:50.413Z,48.34
2019-02-27T18:20:24.295Z,49.96
2019-02-27T18:22:49.567Z,49.36
2019-02-27T18:25:18.569Z,48.13
2019-02-27T18:27:47.899Z,48.43
2019-02-27T18:30:23.424Z,49.58
2019-02-27T18:32:51.690Z,48.48
2019-02-27T18:35:20.251Z,49.46
2019-02-27T18:37:52.948Z,49.17
2019-02-27T18:40:19.336Z,49.99
2019-02-27T18:42:47.623Z,50.23
2019-02-27T18:45:17.554Z,52.58
2019-02-27T18:47:45.835Z,52.46
2019-02-27T18:50:15.376Z,52.04
2019-02-27T18:52:43.765Z,51.85
2019-02-27T18:55:14.741Z,50.82
2019-02-27T18:57:45.691Z,52.13
2019-02-27T19:00:25.067Z,53.16
2019-02-27T19:03:04.269Z,53.16
2019-02-27T19:05:32.580Z,54.09
2019-02-27T19:08:00.870Z,53.88
2019-02-27T19:10:29.316Z,53.63
2019-02-27T19:13:00.178Z,54.95
2019-02-27T19:15:27.751Z,54.05
2019-02-27T19:17:56.110Z,54.64
2019-02-27T19:20:30.342Z,53.68
2019-02-27T19:23:00.325Z,54.80
2019-02-27T19:25:33.966Z,54.40
2019-02-27T19:27:58.789Z,54.97
2019-02-27T19:30:27.435Z,56.45
2019-02-27T19:33:01.567Z,54.09
2019-02-27T19:35:25.889Z,55.43
2019-02-27T19:37:54.175Z,54.78
2019-02-27T19:40:23.620Z,55.21
2019-02-27T19:42:55.223Z,56.35
2019-02-27T19:45:23.600Z,55.35
2019-02-27T19:47:54.805Z,55.80
2019-02-27T19:50:21.980Z,56.56
2019-02-27T19:52:50.323Z,57.23
2019-02-27T19:55:18.618Z,58.88
2019-02-27T19:57:46.892Z,60.48
2019-02-27T20:00:26.717Z,59.40
2019-02-27T20:02:59.337Z,61.01
2019-02-27T20:05:25.081Z,61.09
2019-02-27T20:07:53.825Z,60.04
2019-02-27T20:10:22.100Z,62.34
2019-02-27T20:12:52.966Z,62.26
2019-02-27T20:15:23.331Z,63.80
2019-02-27T20:17:51.435Z,64.41
2019-02-27T20:20:22.946Z,64.15
2019-02-27T20:22:53.547Z,65.06
2019-02-27T20:25:23.766Z,65.12
2019-02-27T20:27:52.071Z,65.48
2019-02-27T20:30:21.430Z,65.78
2019-02-27T20:32:49.961Z,66.10
2019-02-27T20:35:20.742Z,66.53
2019-02-27T20:37:48.359Z,66.42
2019-02-27T20:40:17.601Z,66.63
2019-02-27T20:42:49.922Z,66.72
2019-02-27T20:45:23.213Z,67.02
2019-02-27T20:47:57.621Z,67.17
2019-02-27T20:50:35.742Z,67.09
2019-02-27T20:53:04.674Z,67.64
2019-02-27T20:55:32.962Z,67.68
2019-02-27T20:58:01.250Z,68.08
2019-02-27T21:00:29.528Z,67.97
2019-02-27T21:03:00.563Z,68.09
2019-02-27T21:05:28.222Z,68.50
2019-02-27T21:08:00.946Z,68.32
2019-02-27T21:10:33.726Z,68.12
2019-02-27T21:13:02.028Z,68.61
2019-02-27T21:15:32.619Z,68.79
2019-02-27T21:18:00.401Z,68.88
2019-02-27T21:20:28.775Z,68.57
2019-02-27T21:22:59.974Z,68.67
2019-02-27T21:25:27.168Z,68.78
2019-02-27T21:27:55.552Z,69.17
2019-02-27T21:30:24.368Z,69.58
2019-02-27T21:32:52.658Z,69.99
2019-02-27T21:35:20.994Z,70.31
2019-02-27T21:37:50.912Z,70.45
2019-02-27T21:40:19.712Z,70.64
2019-02-27T21:42:50.789Z,70.58
2019-02-27T21:45:22.895Z,70.07
2019-02-27T21:47:52.676Z,69.97
2019-02-27T21:50:23.477Z,69.95
2019-02-27T21:52:54.318Z,70.03
2019-02-27T21:55:21.805Z,70.10
2019-02-27T21:57:50.155Z,69.95
2019-02-27T22:00:26.098Z,69.70
2019-02-27T22:02:55.535Z,69.76
2019-02-27T22:05:23.810Z,69.69
2019-02-27T22:07:52.292Z,69.34
2019-02-27T22:10:20.749Z,69.28
2019-02-27T22:12:49.097Z,69.34
2019-02-27T22:15:30.099Z,69.28
2019-02-27T22:17:58.463Z,69.46
2019-02-27T22:20:27.051Z,69.30
2019-02-27T22:22:55.337Z,69.41
2019-02-27T22:25:23.659Z,69.78
2019-02-27T22:27:51.964Z,69.98
2019-02-27T22:30:20.967Z,70.27
2019-02-27T22:32:49.285Z,70.66
2019-02-27T22:35:17.924Z,71.15
2019-02-27T22:37:51.308Z,71.40
2019-02-27T22:40:20.876Z,72.04
2019-02-27T22:42:49.360Z,72.27
2019-02-27T22:45:18.580Z,72.45
2019-02-27T22:47:46.880Z,72.68
2019-02-27T22:50:19.162Z,72.96
2019-02-27T22:52:47.450Z,73.19
2019-02-27T22:55:15.777Z,73.32
2019-02-27T22:57:44.071Z,73.32
2019-02-27T23:00:42.982Z,73.44
2019-02-27T23:03:10.390Z,73.72
2019-02-27T23:05:39.111Z,73.75
2019-02-27T23:08:07.453Z,73.86
2019-02-27T23:10:35.737Z,74.30
2019-02-27T23:13:04.203Z,74.79
2019-02-27T23:15:32.580Z,75.72
2019-02-27T23:18:02.510Z,76.14
2019-02-27T23:20:30.923Z,76.33
2019-02-27T23:23:02.124Z,76.97
2019-02-27T23:25:29.211Z,77.19
2019-02-27T23:28:00.571Z,77.61
2019-02-27T23:30:27.519Z,78.11
2019-02-27T23:32:55.805Z,78.47
2019-02-27T23:35:24.100Z,78.68
2019-02-27T23:37:52.856Z,79.19
2019-02-27T23:40:21.133Z,80.10
2019-02-27T23:42:49.432Z,81.17
2019-02-27T23:45:17.721Z,81.49
2019-02-27T23:47:46.028Z,81.50
2019-02-27T23:50:14.699Z,81.98
2019-02-27T23:52:42.983Z,82.16
2019-02-27T23:55:11.355Z,82.71
2019-02-27T23:57:39.648Z,83.29
